»·PEaware :: SWA210 KPDX-KLAX

SWA210 :: KPDX-KLAX

FLIGHT INFORMATION

Flight Status: Arrived
Operator:
Southwest Airlines
More flights by this operator :: More flights under this callsign
Pilot: Anonymous 16446 (16446)
Aircraft: BOEING 737-200
(B732)
More flights by this aircraft type
Origin: KPDX Portland Intl
United States
Destination: KLAX Los Angeles Intl
United States
More flights between these airports :: More routes between these airports
Route:
File this flight plan on PilotEdge
Remarks:
Altitude:
(Current/Filed)
34,000ft
Speed:
(Current/Filed)
450kts
Departed: 23-Jan-18 02:21 AM
Arrived: 23-Jan-18 03:39 AM
Distance/Time
Traveled:
708nm/1:18
Distance/Time
To Go:
Arrived

Flight Plot

Page will automatically refresh every two minutes.

Flight plan parsing failed; only flown route is shown


Map Options




Map Legend


Flown Route
Filed Route
Departure Airport
Arrival Airport
Navaid (VOR, NDB)
Fix

Horizontal Profiles

Position Reports

Time Latitude Longitude Heading Altitude Ground
Speed
23-Jan-18 02:11 45.589214 -122.595830 207 38ft 0kts
23-Jan-18 02:12 45.589214 -122.595830 207 38ft 0kts
23-Jan-18 02:13 45.589214 -122.595830 207 38ft 0kts
23-Jan-18 02:14 45.589213 -122.595830 207 38ft 0kts
23-Jan-18 02:15 45.589213 -122.595830 207 38ft 0kts
23-Jan-18 02:16 45.589213 -122.595830 207 38ft 0kts
23-Jan-18 02:17 45.589213 -122.595830 207 38ft 0kts
23-Jan-18 02:18 45.589213 -122.595830 207 38ft 0kts
23-Jan-18 02:19 45.589213 -122.595831 207 38ft 0kts
23-Jan-18 02:20 45.589446 -122.595645 216 38ft 2kts
23-Jan-18 02:21 45.589633 -122.594890 284 38ft 2kts
23-Jan-18 02:22 45.589579 -122.594701 299 38ft 0kts
23-Jan-18 02:23 45.589579 -122.594701 299 38ft 0kts
23-Jan-18 02:24 45.589593 -122.594738 299 38ft 3kts
23-Jan-18 02:25 45.593452 -122.599014 48 38ft 26kts
23-Jan-18 02:26 45.594830 -122.596570 70 38ft 14kts
23-Jan-18 02:27 45.577644 -122.563416 163 1474ft 175kts
23-Jan-18 02:28 45.522962 -122.557890 170 6050ft 199kts
23-Jan-18 02:29 45.459603 -122.541924 168 9305ft 268kts
23-Jan-18 02:30 45.384999 -122.512516 168 13091ft 294kts
23-Jan-18 02:31 45.305376 -122.476741 169 16508ft 311kts
23-Jan-18 02:32 45.219811 -122.451151 179 19427ft 322kts
23-Jan-18 02:33 45.129484 -122.437887 189 21970ft 330kts
23-Jan-18 02:34 45.035600 -122.439627 189 24094ft 347kts
23-Jan-18 02:35 44.936341 -122.424837 174 25897ft 379kts
23-Jan-18 02:36 44.832250 -122.393432 177 27517ft 391kts
23-Jan-18 02:37 44.723678 -122.364807 178 28951ft 404kts
23-Jan-18 02:38 44.611887 -122.336537 178 30216ft 416kts
23-Jan-18 02:39 44.496784 -122.306900 178 31261ft 428kts
23-Jan-18 02:40 44.379104 -122.276560 179 32242ft 437kts
23-Jan-18 02:41 44.258371 -122.245632 178 33115ft 447kts
23-Jan-18 02:42 44.134909 -122.214175 178 33900ft 456kts
23-Jan-18 02:43 44.009910 -122.182437 178 34686ft 462kts
23-Jan-18 02:44 43.874787 -122.148422 178 35453ft 468kts
23-Jan-18 02:45 43.435727 -122.038956 178 37264ft 484kts
23-Jan-18 02:46 42.913507 -121.910502 176 37314ft 506kts
23-Jan-18 02:47 42.517127 -121.814864 176 37311ft 492kts
23-Jan-18 02:48 42.120733 -121.720046 176 37316ft 494kts
23-Jan-18 02:49 41.834912 -121.667669 178 37314ft 492kts
23-Jan-18 02:50 41.538496 -121.612387 178 37316ft 492kts
23-Jan-18 02:51 41.279881 -121.564441 178 37327ft 493kts
23-Jan-18 02:52 41.011341 -121.515098 177 37366ft 493kts
23-Jan-18 02:53 40.771148 -121.471470 177 37368ft 494kts
23-Jan-18 02:54 40.513690 -121.424849 177 37377ft 495kts
23-Jan-18 02:55 40.251931 -121.377145 176 37375ft 499kts
23-Jan-18 02:56 40.000300 -121.312117 178 37377ft 497kts
23-Jan-18 02:57 39.792177 -121.278191 178 37376ft 497kts
23-Jan-18 02:58 39.571509 -121.242181 178 37352ft 497kts
23-Jan-18 02:59 39.331094 -121.203129 178 37329ft 497kts
23-Jan-18 03:00 39.066528 -121.160496 178 37343ft 497kts
23-Jan-18 03:01 38.874181 -121.129868 177 37342ft 498kts
23-Jan-18 03:02 38.708679 -121.103638 177 37361ft 498kts
23-Jan-18 03:03 38.467836 -121.065505 177 37171ft 502kts
23-Jan-18 03:04 38.197024 -121.022922 177 37141ft 504kts
23-Jan-18 03:05 37.957507 -120.950878 164 37371ft 507kts
23-Jan-18 03:06 37.777761 -120.869323 154 37370ft 511kts
23-Jan-18 03:07 37.570396 -120.768073 163 37359ft 514kts
23-Jan-18 03:08 37.354241 -120.677040 164 37359ft 522kts
23-Jan-18 03:09 37.115518 -120.577311 164 37355ft 519kts
23-Jan-18 03:10 36.898908 -120.487492 164 37356ft 510kts
23-Jan-18 03:11 36.698147 -120.405580 164 37355ft 495kts
23-Jan-18 03:12 36.522295 -120.333183 164 37351ft 486kts
23-Jan-18 03:13 36.303842 -120.243276 164 37355ft 477kts
23-Jan-18 03:14 36.066980 -120.147069 164 37361ft 471kts
23-Jan-18 03:15 35.879244 -120.071406 165 37345ft 469kts
23-Jan-18 03:16 35.699543 -119.999789 164 37332ft 466kts
23-Jan-18 03:17 35.486866 -119.843561 144 37334ft 468kts
23-Jan-18 03:18 35.312867 -119.692375 145 37329ft 467kts
23-Jan-18 03:19 35.111522 -119.520993 146 37323ft 468kts
23-Jan-18 03:20 34.937449 -119.374013 147 35128ft 471kts
23-Jan-18 03:21 34.784722 -119.245865 147 33317ft 458kts
23-Jan-18 03:22 34.579567 -119.074162 147 31222ft 442kts
23-Jan-18 03:23 34.384374 -118.906677 143 29230ft 420kts
23-Jan-18 03:24 34.289142 -118.708294 108 25601ft 391kts
23-Jan-18 03:25 34.248918 -118.590793 111 23658ft 378kts
23-Jan-18 03:26 34.207856 -118.478301 111 21789ft 364kts
23-Jan-18 03:27 34.176322 -118.373172 101 20063ft 349kts
23-Jan-18 03:28 34.152407 -118.283066 107 18125ft 337kts
23-Jan-18 03:29 34.119951 -118.181358 109 15541ft 323kts
23-Jan-18 03:30 34.088214 -118.086777 110 13753ft 310kts
23-Jan-18 03:31 34.054952 -117.993097 111 11946ft 301kts
23-Jan-18 03:32 34.023499 -117.905282 111 10494ft 296kts
23-Jan-18 03:33 33.973683 -117.837092 177 10207ft 281kts
23-Jan-18 03:34 33.933079 -117.887889 283 10210ft 247kts
23-Jan-18 03:35 33.963778 -117.950267 303 9672ft 222kts
23-Jan-18 03:36 33.985167 -118.021483 278 7384ft 233kts
23-Jan-18 03:37 33.982026 -118.088157 263 6281ft 193kts
23-Jan-18 03:38 33.974390 -118.157774 262 4075ft 206kts
23-Jan-18 03:39 33.968099 -118.223880 264 3224ft 222kts
23-Jan-18 03:40 33.960794 -118.299717 263 1831ft 228kts
23-Jan-18 03:41 33.954473 -118.360863 263 800ft 136kts
23-Jan-18 03:42 33.950116 -118.402777 263 156ft 126kts
23-Jan-18 03:43 33.955381 -118.352104 263 973ft 150kts
23-Jan-18 03:44 33.950928 -118.394929 264 271ft 128kts
23-Jan-18 03:45 33.948289 -118.415503 125 114ft 12kts
23-Jan-18 03:46 33.948117 -118.411369 79 114ft 47kts
23-Jan-18 03:47 33.949078 -118.401694 83 114ft 34kts
23-Jan-18 03:48 33.949197 -118.400878 66 114ft 0kts
23-Jan-18 03:49 33.949197 -118.400877 64 114ft 0kts
23-Jan-18 03:50 33.949219 -118.400831 55 114ft 3kts
23-Jan-18 03:51 33.949533 -118.407878 262 114ft 101kts
23-Jan-18 03:52 33.962820 -118.450792 23 2475ft 192kts
23-Jan-18 03:53 33.996923 -118.407673 44 5479ft 235kts
23-Jan-18 03:54 34.034241 -118.346294 54 8421ft 274kts
23-Jan-18 03:55 34.074439 -118.274761 56 11166ft 291kts
23-Jan-18 03:56 34.110525 -118.203733 57 11231ft 367kts
23-Jan-18 03:57 34.166821 -118.093662 56 11438ft 384kts
23-Jan-18 03:58 34.221005 -117.985339 50 10575ft 362kts
23-Jan-18 03:59 34.288477 -117.900282 31 10136ft 342kts
23-Jan-18 04:00 34.360404 -117.847320 38 11208ft 300kts

Navigation Log

Ident Type
Flight plan parsing failed, navigation log unavailable